createdAt,value
2022-10-21T00:01:47.464Z,100380.06
2022-10-21T00:06:48.928Z,100373.47
2022-10-21T00:11:50.446Z,100360.56
2022-10-21T00:16:52.090Z,100355.31
2022-10-21T00:21:53.636Z,100352.91
2022-10-21T00:26:55.142Z,100356.75
2022-10-21T00:31:56.773Z,100370.16
2022-10-21T00:36:58.507Z,100361.72
2022-10-21T00:42:00.040Z,100353.75
2022-10-21T00:47:07.511Z,100341.94
2022-10-21T00:52:14.210Z,100347.22
2022-10-21T00:57:16.940Z,100346.72
2022-10-21T01:02:18.675Z,100320.00
2022-10-21T01:07:20.402Z,100318.28
2022-10-21T01:12:42.926Z,100319.97
2022-10-21T01:17:53.418Z,100305.09
2022-10-21T01:23:27.585Z,100308.53
2022-10-21T01:28:35.050Z,100310.06
2022-10-21T01:33:36.453Z,100295.00
2022-10-21T01:38:52.070Z,100294.75
2022-10-21T01:43:57.566Z,100284.63
2022-10-21T01:49:07.323Z,100275.91
2022-10-21T01:54:22.702Z,100278.91
2022-10-21T01:59:27.266Z,100279.63
2022-10-21T02:04:32.076Z,100275.13
2022-10-21T02:09:33.618Z,100267.47
2022-10-21T02:14:39.572Z,100252.47
2022-10-21T02:19:41.067Z,100244.31
2022-10-21T02:24:49.342Z,100257.63
2022-10-21T02:29:54.205Z,100257.53
2022-10-21T02:35:08.699Z,100268.03
2022-10-21T02:40:17.706Z,100249.00
2022-10-21T02:45:21.224Z,100244.44
2022-10-21T02:50:22.729Z,100250.88
2022-10-21T02:55:24.355Z,100238.28
2022-10-21T03:00:29.567Z,100236.16
2022-10-21T03:05:34.210Z,100235.28
2022-10-21T03:10:36.126Z,100231.84
2022-10-21T03:15:37.606Z,100228.47
2022-10-21T03:20:39.254Z,100216.47
2022-10-21T03:25:40.726Z,100215.03
2022-10-21T03:30:42.339Z,100216.28
2022-10-21T03:35:43.896Z,100208.31
2022-10-21T03:40:45.449Z,100214.47
2022-10-21T03:45:48.268Z,100225.69
2022-10-21T03:50:49.805Z,100227.28
2022-10-21T03:55:56.485Z,100224.63
2022-10-21T04:00:58.344Z,100229.00
2022-10-21T04:05:59.846Z,100230.50
2022-10-21T04:11:01.403Z,100245.44
2022-10-21T04:16:05.392Z,100236.31
2022-10-21T04:21:07.120Z,100242.97
2022-10-21T04:26:08.911Z,100235.25
2022-10-21T04:31:10.467Z,100224.63
2022-10-21T04:36:11.991Z,100229.38
2022-10-21T04:41:13.519Z,100215.50
2022-10-21T04:46:15.043Z,100220.50
2022-10-21T04:51:16.594Z,100220.91
2022-10-21T04:56:18.130Z,100221.81
2022-10-21T05:01:19.791Z,100216.47
2022-10-21T05:06:21.369Z,100207.06
2022-10-21T05:11:22.875Z,100203.09
2022-10-21T05:16:24.390Z,100194.09
2022-10-21T05:21:26.007Z,100174.97
2022-10-21T05:26:27.543Z,100174.78
2022-10-21T05:31:29.185Z,100172.47
2022-10-21T05:36:30.676Z,100163.41
2022-10-21T05:41:32.189Z,100150.59
2022-10-21T05:46:33.768Z,100157.00
2022-10-21T05:51:35.558Z,100147.63
2022-10-21T05:56:37.192Z,100154.72
2022-10-21T06:01:38.806Z,100140.94
2022-10-21T06:06:40.349Z,100150.44
2022-10-21T06:11:41.900Z,100136.31
2022-10-21T06:16:43.515Z,100138.47
2022-10-21T06:21:45.206Z,100135.25
2022-10-21T06:26:49.203Z,100137.88
2022-10-21T06:31:50.717Z,100146.91
2022-10-21T06:36:52.281Z,100143.50
2022-10-21T06:41:53.859Z,100153.63
2022-10-21T06:47:14.183Z,100156.63
2022-10-21T06:52:15.879Z,100159.78
2022-10-21T06:57:17.424Z,100172.69
2022-10-21T07:02:18.964Z,100192.00
2022-10-21T07:07:20.499Z,100194.56
2022-10-21T07:12:22.040Z,100210.72
2022-10-21T07:17:23.644Z,100215.47
2022-10-21T07:22:25.215Z,100225.44
2022-10-21T07:27:26.756Z,100230.84
2022-10-21T07:32:28.343Z,100242.13
2022-10-21T07:37:30.024Z,100226.38
2022-10-21T07:42:31.576Z,100222.03
2022-10-21T07:47:33.116Z,100227.88
2022-10-21T07:52:38.536Z,100238.72
2022-10-21T07:57:43.791Z,100241.34
2022-10-21T08:02:45.328Z,100243.28
2022-10-21T08:07:47.017Z,100253.06
2022-10-21T08:12:48.529Z,100260.25
2022-10-21T08:17:50.091Z,100265.97
2022-10-21T08:22:51.643Z,100260.44
2022-10-21T08:27:53.231Z,100273.81
2022-10-21T08:32:54.718Z,100276.44
2022-10-21T08:37:56.422Z,100280.91
2022-10-21T08:43:07.742Z,100287.72
2022-10-21T08:48:16.416Z,100291.03
2022-10-21T08:53:37.599Z,100291.63
2022-10-21T08:58:39.537Z,100299.91
2022-10-21T09:03:59.295Z,100302.91
2022-10-21T09:09:22.222Z,100301.97
2022-10-21T09:14:42.288Z,100299.69
2022-10-21T09:19:52.833Z,100301.88
2022-10-21T09:24:59.962Z,100305.09
2022-10-21T09:30:06.853Z,100295.78
2022-10-21T09:35:18.003Z,100288.00
2022-10-21T09:40:23.495Z,100277.06
2022-10-21T09:45:31.941Z,100256.84
2022-10-21T09:50:34.695Z,100247.19
2022-10-21T09:55:39.266Z,100243.19
2022-10-21T10:00:50.760Z,100217.88
2022-10-21T10:05:52.394Z,100156.31
2022-10-21T10:11:19.752Z,100135.25
2022-10-21T10:16:29.649Z,100231.78
2022-10-21T10:21:31.271Z,100331.84
2022-10-21T10:26:36.190Z,100364.97
2022-10-21T10:31:38.867Z,100364.84
2022-10-21T10:36:41.265Z,100349.44
2022-10-21T10:41:48.567Z,100349.53
2022-10-21T10:46:56.025Z,100347.56
2022-10-21T10:52:11.913Z,100342.63
2022-10-21T10:57:16.403Z,100353.91
2022-10-21T11:02:36.329Z,100364.59
2022-10-21T11:08:01.392Z,100365.75
2022-10-21T11:13:12.919Z,100360.09
2022-10-21T11:18:24.505Z,100366.19
2022-10-21T11:23:36.382Z,100350.13
2022-10-21T11:29:04.786Z,100346.19
2022-10-21T11:34:22.217Z,100338.38
2022-10-21T11:39:35.699Z,100328.69
2022-10-21T11:44:55.562Z,100319.56
2022-10-21T11:50:27.453Z,100318.69
2022-10-21T11:55:38.035Z,100312.94
2022-10-21T12:01:11.638Z,100316.91
2022-10-21T12:06:29.143Z,100314.09
2022-10-21T12:11:46.203Z,100325.25
2022-10-21T12:16:48.828Z,100314.75
2022-10-21T12:21:50.545Z,100317.13
2022-10-21T12:26:52.008Z,100311.13
2022-10-21T12:32:06.083Z,100308.03
2022-10-21T12:37:42.358Z,100310.22
2022-10-21T12:42:48.036Z,100315.28
2022-10-21T12:47:50.963Z,100309.44
2022-10-21T12:53:29.896Z,100298.47
2022-10-21T12:58:44.843Z,100301.22
2022-10-21T13:03:46.251Z,100307.56
2022-10-21T13:08:54.074Z,100306.53
2022-10-21T13:14:13.542Z,100291.56
2022-10-21T13:19:15.050Z,100290.34
2022-10-21T13:24:24.030Z,100292.69
2022-10-21T13:29:30.738Z,100285.72
2022-10-21T13:34:32.503Z,100289.00
2022-10-21T13:39:34.414Z,100282.88
2022-10-21T13:44:42.334Z,100278.53
2022-10-21T13:49:50.859Z,100267.94
2022-10-21T13:55:00.327Z,100281.31
2022-10-21T14:00:04.860Z,100276.78
2022-10-21T14:05:27.268Z,100282.63
2022-10-21T14:10:30.671Z,100272.91
2022-10-21T14:15:43.599Z,100274.38
2022-10-21T14:20:48.530Z,100281.44
2022-10-21T14:25:53.093Z,100272.75
2022-10-21T14:30:55.027Z,100272.91
2022-10-21T14:36:25.130Z,100273.44
2022-10-21T14:41:32.330Z,100279.13
2022-10-21T14:46:42.607Z,100291.38
2022-10-21T14:51:44.517Z,100300.19
2022-10-21T14:56:46.274Z,100291.72
2022-10-21T15:01:48.498Z,100285.31
2022-10-21T15:07:01.060Z,100276.88
2022-10-21T15:12:21.387Z,100276.94
2022-10-21T15:17:23.190Z,100280.03
2022-10-21T15:22:32.193Z,100276.16
2022-10-21T15:27:42.315Z,100276.56
2022-10-21T15:32:45.587Z,100280.91
2022-10-21T15:37:51.310Z,100277.50
2022-10-21T15:42:52.906Z,100283.47
2022-10-21T15:47:55.347Z,100282.78
2022-10-21T15:52:56.871Z,100284.31
2022-10-21T15:57:58.536Z,100276.38
2022-10-21T16:03:00.292Z,100280.59
2022-10-21T16:08:01.818Z,100284.53
2022-10-21T16:13:03.702Z,100275.78
2022-10-21T16:18:11.612Z,100272.31
2022-10-21T16:23:13.126Z,100287.13
2022-10-21T16:28:14.729Z,100301.19
2022-10-21T16:33:16.291Z,100292.16
2022-10-21T16:38:17.829Z,100294.28
2022-10-21T16:43:19.352Z,100302.03
2022-10-21T16:48:21.048Z,100296.31
2022-10-21T16:53:22.522Z,100307.78
2022-10-21T16:58:24.030Z,100309.38
2022-10-21T17:03:25.574Z,100308.38
2022-10-21T17:08:27.139Z,100306.75
2022-10-21T17:13:28.632Z,100318.69
2022-10-21T17:18:30.124Z,100327.66
2022-10-21T17:23:32.116Z,100336.16
2022-10-21T17:28:33.604Z,100337.38
2022-10-21T17:33:35.108Z,100349.75
2022-10-21T17:38:37.076Z,100358.53
2022-10-21T17:43:38.935Z,100362.22
2022-10-21T17:48:40.450Z,100361.66
2022-10-21T17:53:42.086Z,100365.16
2022-10-21T17:58:43.857Z,100376.81
2022-10-21T18:03:45.450Z,100377.03
2022-10-21T18:08:47.793Z,100379.41
2022-10-21T18:13:53.580Z,100373.97
2022-10-21T18:19:01.724Z,100378.00
2022-10-21T18:24:07.455Z,100385.22
2022-10-21T18:29:11.664Z,100384.03
2022-10-21T18:34:13.240Z,100386.47
2022-10-21T18:39:14.782Z,100392.38
2022-10-21T18:44:16.301Z,100396.28
2022-10-21T18:49:17.859Z,100378.50
2022-10-21T18:54:19.528Z,100381.25
2022-10-21T18:59:21.104Z,100382.06
2022-10-21T19:04:22.598Z,100366.44
2022-10-21T19:09:25.622Z,100362.31
2022-10-21T19:14:27.169Z,100344.78
2022-10-21T19:19:28.717Z,100358.84
2022-10-21T19:24:30.339Z,100369.50
2022-10-21T19:29:31.891Z,100378.44
2022-10-21T19:34:33.421Z,100380.47
2022-10-21T19:39:35.481Z,100391.44
2022-10-21T19:44:37.182Z,100396.97
2022-10-21T19:49:38.895Z,100410.97
2022-10-21T19:54:40.853Z,100415.72
2022-10-21T19:59:42.436Z,100420.19
2022-10-21T20:04:43.996Z,100435.41
2022-10-21T20:09:45.546Z,100446.53
2022-10-21T20:14:47.061Z,100436.34
2022-10-21T20:19:49.432Z,100430.78
2022-10-21T20:24:51.980Z,100428.34
2022-10-21T20:29:53.482Z,100434.81
2022-10-21T20:34:55.011Z,100441.78
2022-10-21T20:39:56.577Z,100443.41
2022-10-21T20:44:58.114Z,100436.44
2022-10-21T20:49:59.653Z,100429.09
2022-10-21T20:55:01.273Z,100437.16
2022-10-21T21:00:04.522Z,100443.31
2022-10-21T21:05:06.572Z,100444.94
2022-10-21T21:10:08.568Z,100438.59
2022-10-21T21:15:10.400Z,100431.41
2022-10-21T21:20:12.031Z,100438.75
2022-10-21T21:25:13.576Z,100443.59
2022-10-21T21:30:15.120Z,100434.69
2022-10-21T21:35:16.694Z,100450.59
2022-10-21T21:40:18.217Z,100447.16
2022-10-21T21:45:19.766Z,100438.13
2022-10-21T21:50:21.435Z,100430.84
2022-10-21T21:55:22.991Z,100427.03
2022-10-21T22:00:25.026Z,100423.22
2022-10-21T22:05:27.180Z,100420.00
2022-10-21T22:10:29.527Z,100413.75
2022-10-21T22:15:48.438Z,100414.78
2022-10-21T22:20:50.285Z,100417.16
2022-10-21T22:25:51.927Z,100429.09
2022-10-21T22:30:56.284Z,100435.34
2022-10-21T22:35:57.997Z,100435.41
2022-10-21T22:41:01.350Z,100438.84
2022-10-21T22:46:09.722Z,100441.75
2022-10-21T22:51:22.903Z,100444.88
2022-10-21T22:56:26.110Z,100445.38
2022-10-21T23:01:28.290Z,100430.22
2022-10-21T23:06:31.363Z,100427.09
2022-10-21T23:11:33.177Z,100428.28
2022-10-21T23:16:35.503Z,100425.44
2022-10-21T23:21:37.622Z,100426.06
2022-10-21T23:26:39.157Z,100436.03
2022-10-21T23:31:40.766Z,100436.69
2022-10-21T23:36:42.294Z,100451.66
2022-10-21T23:41:43.879Z,100454.31
2022-10-21T23:46:45.467Z,100460.22
2022-10-21T23:51:47.112Z,100472.88
2022-10-21T23:56:48.615Z,100473.56
